Time;durP1;ratioP1;P1;durP2;ratioP2;P2;SDS_P1;SDS_P2;PMS_P1;PMS_P2;Temp;Humidity;BMP_temperature;BMP_pressure;BME280_temperature;BME280_humidity;BME280_pressure;Samples;Min_cycle;Max_cycle;Signal;HPM_P1;HPM_P2
2021/04/09 00:00:16;;;;;;;22.17;11.90;;;1.30;99.90;;;;;;4998770;28;20032;-58
2021/04/09 00:02:43;;;;;;;27.95;10.60;;;1.30;99.90;;;;;;4991993;28;20022;-59
2021/04/09 00:05:11;;;;;;;19.27;10.45;;;1.20;99.90;;;;;;4988786;28;20028;-58
2021/04/09 00:07:49;;;;;;;18.80;8.75;;;1.30;99.90;;;;;;4990776;28;20065;-58
2021/04/09 00:10:16;;;;;;;23.92;10.50;;;1.30;99.90;;;;;;4984427;28;20034;-55
2021/04/09 00:12:42;;;;;;;15.00;8.27;;;1.30;99.90;;;;;;4998622;28;20049;-55
2021/04/09 00:15:10;;;;;;;17.67;9.23;;;1.30;99.90;;;;;;4989687;28;20523;-59
2021/04/09 00:17:36;;;;;;;15.32;7.97;;;1.30;99.90;;;;;;5002518;28;20065;-57
2021/04/09 00:20:01;;;;;;;18.73;8.15;;;1.20;99.90;;;;;;4993063;28;20049;-58
2021/04/09 00:22:27;;;;;;;20.75;9.15;;;1.20;99.90;;;;;;4995011;28;20399;-59
2021/04/09 00:24:53;;;;;;;20.42;9.40;;;1.20;99.90;;;;;;5003417;28;20096;-60
2021/04/09 00:27:18;;;;;;;21.60;10.70;;;1.20;99.90;;;;;;5001494;28;20038;-55
2021/04/09 00:29:44;;;;;;;22.77;10.02;;;1.20;99.90;;;;;;5001946;28;20037;-58
2021/04/09 00:32:10;;;;;;;19.60;9.15;;;1.10;99.90;;;;;;4999428;28;20038;-58
2021/04/09 00:34:36;;;;;;;18.17;9.70;;;1.10;99.90;;;;;;4992325;28;20041;-58
2021/04/09 00:37:01;;;;;;;20.20;9.13;;;1.10;99.90;;;;;;4973651;28;20053;-58
2021/04/09 00:39:27;;;;;;;16.03;8.70;;;1.20;99.90;;;;;;4999121;28;20053;-59
2021/04/09 00:41:52;;;;;;;21.60;8.50;;;1.10;99.90;;;;;;5000741;28;20391;-58
2021/04/09 00:44:18;;;;;;;18.40;9.75;;;1.10;99.90;;;;;;4997392;28;20089;-60
2021/04/09 00:46:43;;;;;;;19.88;9.13;;;1.10;99.90;;;;;;5004021;28;20136;-58
2021/04/09 00:49:10;;;;;;;16.23;8.48;;;1.10;99.90;;;;;;4990816;28;20045;-57
2021/04/09 00:51:36;;;;;;;19.00;9.55;;;1.10;99.90;;;;;;4991083;28;20034;-57
2021/04/09 00:54:06;;;;;;;21.92;12.18;;;1.00;99.90;;;;;;4995504;28;20032;-59
2021/04/09 00:56:33;;;;;;;18.05;10.20;;;1.10;99.90;;;;;;4985566;28;20073;-54
2021/04/09 00:59:00;;;;;;;24.60;11.30;;;1.10;99.90;;;;;;4995148;28;20027;-58
2021/04/09 01:01:26;;;;;;;26.98;11.82;;;1.10;99.90;;;;;;5001956;28;20061;-58
2021/04/09 01:03:54;;;;;;;33.83;12.90;;;1.10;99.90;;;;;;4999936;28;20030;-58
2021/04/09 01:06:21;;;;;;;28.75;12.05;;;1.10;99.90;;;;;;5001553;28;20431;-57
2021/04/09 01:08:47;;;;;;;25.08;11.90;;;1.10;99.90;;;;;;5000493;28;20107;-58
2021/04/09 01:11:13;;;;;;;22.27;9.27;;;1.10;99.90;;;;;;4985733;28;20022;-58
2021/04/09 01:13:39;;;;;;;21.00;9.75;;;1.10;99.90;;;;;;4990968;28;20034;-59
2021/04/09 01:16:10;;;;;;;14.23;7.70;;;1.10;99.90;;;;;;4982701;28;20496;-60
2021/04/09 01:19:01;;;;;;;18.08;7.50;;;1.10;99.90;;;;;;4998115;28;20061;-59
2021/04/09 01:21:35;;;;;;;22.15;7.43;;;1.10;99.90;;;;;;4993402;28;20050;-60
2021/04/09 01:24:39;;;;;;;14.15;7.68;;;1.10;99.90;;;;;;4993545;28;20657;-58
2021/04/09 01:27:56;;;;;;;19.85;8.23;;;1.10;99.90;;;;;;5000026;28;20038;-57
2021/04/09 01:30:59;;;;;;;34.70;10.40;;;1.10;99.90;;;;;;4996016;28;20025;-56
2021/04/09 01:33:38;;;;;;;29.20;11.43;;;1.10;99.90;;;;;;4982083;28;20050;-58
2021/04/09 01:36:31;;;;;;;24.03;9.30;;;1.10;99.90;;;;;;4974222;28;20042;-59
2021/04/09 01:39:25;;;;;;;40.50;12.97;;;1.10;99.90;;;;;;4997138;28;20026;-60
2021/04/09 01:41:53;;;;;;;33.80;11.07;;;1.10;99.90;;;;;;4993200;28;20042;-59
2021/04/09 01:44:22;;;;;;;31.90;11.98;;;1.10;99.90;;;;;;4995373;28;20034;-59
2021/04/09 01:46:52;;;;;;;49.80;17.40;;;1.10;99.90;;;;;;4998688;28;20022;-59
2021/04/09 01:49:18;;;;;;;17.83;8.55;;;1.10;99.90;;;;;;5000555;28;20046;-60
2021/04/09 01:51:45;;;;;;;21.63;8.68;;;1.10;99.90;;;;;;4994949;28;20037;-59
2021/04/09 01:54:13;;;;;;;15.65;7.70;;;1.10;99.90;;;;;;4999607;28;20404;-59
2021/04/09 01:56:40;;;;;;;16.60;7.57;;;1.10;99.90;;;;;;4997888;28;20027;-57
2021/04/09 01:59:06;;;;;;;15.65;7.10;;;1.10;99.90;;;;;;4989267;28;20027;-58
2021/04/09 02:01:33;;;;;;;13.50;7.10;;;1.00;99.90;;;;;;4994881;28;20030;-59
2021/04/09 02:03:59;;;;;;;14.32;6.95;;;1.10;99.90;;;;;;4998838;28;20029;-60
2021/04/09 02:06:25;;;;;;;15.52;7.43;;;1.10;99.90;;;;;;4995326;28;20102;-59
2021/04/09 02:08:51;;;;;;;13.10;6.40;;;1.10;99.90;;;;;;4986806;28;20134;-59
2021/04/09 02:11:18;;;;;;;16.40;7.82;;;1.10;99.90;;;;;;4998928;28;20583;-59
2021/04/09 02:13:45;;;;;;;12.60;6.37;;;1.10;99.90;;;;;;4998306;28;20176;-58
2021/04/09 02:16:11;;;;;;;27.08;7.95;;;1.10;99.90;;;;;;4999406;28;20435;-58
2021/04/09 02:18:36;;;;;;;24.83;9.57;;;1.10;99.90;;;;;;4991332;28;20129;-56
2021/04/09 02:21:03;;;;;;;30.80;12.37;;;1.00;99.90;;;;;;5001932;28;20035;-58
2021/04/09 02:23:30;;;;;;;43.47;14.35;;;1.00;99.90;;;;;;4993035;28;20113;-57
2021/04/09 02:25:56;;;;;;;24.33;10.50;;;1.00;99.90;;;;;;4997797;28;20038;-56
2021/04/09 02:28:23;;;;;;;30.52;12.88;;;1.00;99.90;;;;;;5002780;28;20148;-58
2021/04/09 02:31:02;;;;;;;19.83;9.65;;;1.00;99.90;;;;;;5002272;28;20075;-59
2021/04/09 02:33:32;;;;;;;25.80;10.02;;;1.10;99.90;;;;;;4994621;28;20602;-58
2021/04/09 02:35:58;;;;;;;19.38;9.35;;;1.10;99.90;;;;;;4989469;28;20042;-59
2021/04/09 02:38:29;;;;;;;16.33;7.68;;;1.20;99.90;;;;;;5001532;28;20072;-58
2021/04/09 02:40:58;;;;;;;11.30;6.45;;;1.20;99.90;;;;;;5003306;28;20037;-58
2021/04/09 02:43:24;;;;;;;15.27;6.90;;;1.30;99.90;;;;;;5000921;28;20054;-58
2021/04/09 02:45:49;;;;;;;19.55;7.35;;;1.40;99.90;;;;;;4993279;28;20456;-58
2021/04/09 02:48:18;;;;;;;14.70;6.85;;;1.40;99.90;;;;;;5005845;28;20030;-58
2021/04/09 02:50:46;;;;;;;12.82;7.47;;;1.40;99.90;;;;;;5000864;28;20023;-57
2021/04/09 02:53:17;;;;;;;22.08;9.20;;;1.40;99.90;;;;;;4995319;28;20103;-58
2021/04/09 02:55:45;;;;;;;16.95;8.25;;;1.40;99.90;;;;;;5000896;28;20029;-59
2021/04/09 02:58:13;;;;;;;18.77;7.53;;;1.40;99.90;;;;;;5003077;28;20041;-59
2021/04/09 03:00:44;;;;;;;13.85;7.43;;;1.40;99.90;;;;;;5002662;28;20072;-59
2021/04/09 03:03:11;;;;;;;12.90;7.95;;;1.40;99.90;;;;;;5000488;28;20026;-60
2021/04/09 03:05:41;;;;;;;12.40;7.05;;;1.40;99.90;;;;;;4992262;28;20022;-57
2021/04/09 03:08:08;;;;;;;17.52;7.72;;;1.40;99.90;;;;;;5003148;28;20050;-58
2021/04/09 03:10:34;;;;;;;18.60;8.40;;;1.30;99.90;;;;;;5004925;28;20495;-58
2021/04/09 03:13:01;;;;;;;14.00;7.60;;;1.30;99.90;;;;;;4998581;28;20077;-57
2021/04/09 03:15:30;;;;;;;14.48;7.68;;;1.30;99.90;;;;;;4992600;28;20041;-59
2021/04/09 03:18:13;;;;;;;16.60;8.45;;;1.20;99.90;;;;;;5001459;28;20452;-59
2021/04/09 03:20:40;;;;;;;17.75;7.22;;;1.20;99.90;;;;;;5003942;28;20026;-59
2021/04/09 03:23:06;;;;;;;17.25;7.72;;;1.20;99.90;;;;;;5002873;28;20476;-59
2021/04/09 03:25:33;;;;;;;18.17;7.05;;;1.20;99.90;;;;;;5001113;28;20076;-58
2021/04/09 03:27:58;;;;;;;14.00;7.20;;;1.20;99.90;;;;;;5000238;28;20453;-58
2021/04/09 03:30:25;;;;;;;17.05;6.68;;;1.20;99.90;;;;;;4998359;28;20066;-60
2021/04/09 03:32:50;;;;;;;12.65;7.18;;;1.20;99.90;;;;;;4992421;28;20392;-58
2021/04/09 03:35:17;;;;;;;15.47;7.33;;;1.20;99.90;;;;;;5006815;28;20030;-58
2021/04/09 03:37:43;;;;;;;12.35;6.57;;;1.20;99.90;;;;;;4987743;28;20060;-57
2021/04/09 03:40:10;;;;;;;13.07;6.28;;;1.20;99.90;;;;;;5003028;28;20030;-57
2021/04/09 03:42:35;;;;;;;18.00;6.32;;;1.10;99.90;;;;;;4997933;28;20081;-58
2021/04/09 03:45:01;;;;;;;11.32;6.68;;;1.20;99.90;;;;;;5002339;28;20053;-57
2021/04/09 03:47:27;;;;;;;15.10;6.93;;;1.20;99.90;;;;;;5002676;28;20301;-58
2021/04/09 03:49:52;;;;;;;11.48;5.95;;;1.10;99.90;;;;;;4998891;28;20037;-56
2021/04/09 03:52:18;;;;;;;12.85;6.30;;;1.10;99.90;;;;;;5003781;28;20034;-57
2021/04/09 03:54:43;;;;;;;12.57;6.75;;;1.20;99.90;;;;;;4998783;28;20475;-58
2021/04/09 03:57:09;;;;;;;13.52;6.32;;;1.10;99.90;;;;;;4991182;28;20407;-58
2021/04/09 03:59:34;;;;;;;15.88;7.07;;;1.20;99.90;;;;;;4998122;28;20465;-58
2021/04/09 04:02:01;;;;;;;13.88;7.88;;;1.20;99.90;;;;;;5006254;28;20026;-58
2021/04/09 04:04:27;;;;;;;12.20;6.35;;;1.20;99.90;;;;;;4996022;28;20023;-59
2021/04/09 04:06:52;;;;;;;12.32;6.47;;;1.20;99.90;;;;;;4999435;28;20040;-59
2021/04/09 04:09:18;;;;;;;12.15;6.40;;;1.30;99.90;;;;;;4999315;28;20045;-59
2021/04/09 04:11:44;;;;;;;14.82;6.82;;;1.30;99.90;;;;;;4999542;28;20034;-59
2021/04/09 04:14:10;;;;;;;14.60;6.63;;;1.40;99.90;;;;;;5001489;28;20403;-57
2021/04/09 04:16:35;;;;;;;13.90;7.05;;;1.40;99.90;;;;;;4991408;28;20035;-59
2021/04/09 04:19:01;;;;;;;16.13;6.85;;;1.50;99.90;;;;;;4992635;28;20042;-59
2021/04/09 04:21:27;;;;;;;14.77;6.80;;;1.60;99.90;;;;;;5004372;28;20041;-58
2021/04/09 04:23:52;;;;;;;13.82;5.95;;;1.60;99.90;;;;;;5001958;28;20037;-59
2021/04/09 04:26:18;;;;;;;15.10;6.63;;;1.70;99.90;;;;;;5002750;28;20026;-58
2021/04/09 04:28:44;;;;;;;11.43;5.53;;;1.80;99.90;;;;;;5002752;28;20034;-59
2021/04/09 04:31:11;;;;;;;12.80;6.13;;;1.90;99.90;;;;;;4993699;28;20045;-57
2021/04/09 04:33:36;;;;;;;10.88;5.75;;;1.90;99.90;;;;;;4990846;28;20052;-55
2021/04/09 04:36:02;;;;;;;16.30;6.35;;;2.00;99.90;;;;;;4974564;28;20042;-58
2021/04/09 04:38:28;;;;;;;13.73;6.75;;;2.00;99.90;;;;;;4995414;28;20488;-59
2021/04/09 04:40:53;;;;;;;11.60;6.53;;;2.10;99.90;;;;;;4988502;28;20125;-58
2021/04/09 04:43:19;;;;;;;11.05;5.97;;;2.10;99.90;;;;;;4989742;28;20440;-59
2021/04/09 04:45:45;;;;;;;16.83;7.60;;;2.20;99.90;;;;;;4989803;28;20030;-59
2021/04/09 04:48:11;;;;;;;10.45;5.90;;;2.30;99.90;;;;;;4990803;28;20516;-59
2021/04/09 04:50:37;;;;;;;14.55;6.60;;;2.30;99.90;;;;;;4990370;28;20150;-59
2021/04/09 04:53:04;;;;;;;13.52;5.95;;;2.30;99.90;;;;;;4997205;28;20085;-58
2021/04/09 04:55:30;;;;;;;10.65;5.45;;;2.30;99.90;;;;;;5000453;28;20072;-59
2021/04/09 04:57:55;;;;;;;11.60;6.15;;;2.30;99.90;;;;;;4993879;28;20376;-58
2021/04/09 05:00:21;;;;;;;10.80;6.82;;;2.40;99.90;;;;;;4999325;28;20084;-58
2021/04/09 05:02:47;;;;;;;14.43;6.75;;;2.40;99.90;;;;;;4993010;28;20022;-59
2021/04/09 05:05:13;;;;;;;12.13;6.30;;;2.40;99.90;;;;;;4999060;28;20056;-59
2021/04/09 05:07:38;;;;;;;14.52;6.85;;;2.50;99.90;;;;;;4994249;28;20097;-58
2021/04/09 05:10:06;;;;;;;10.27;5.80;;;2.60;99.90;;;;;;4988030;28;20049;-58
2021/04/09 05:12:32;;;;;;;14.35;6.55;;;2.60;99.90;;;;;;4991020;28;20041;-57
2021/04/09 05:14:57;;;;;;;21.60;6.13;;;2.60;99.90;;;;;;4990061;28;20500;-59
2021/04/09 05:17:23;;;;;;;11.48;6.20;;;2.70;99.90;;;;;;4997940;28;20034;-59
2021/04/09 05:19:49;;;;;;;9.70;6.15;;;2.70;99.90;;;;;;4991974;28;20113;-58
2021/04/09 05:22:14;;;;;;;10.40;6.05;;;2.70;99.90;;;;;;4997314;28;20604;-58
2021/04/09 05:24:40;;;;;;;12.13;6.22;;;2.80;99.90;;;;;;4989583;28;20022;-59
2021/04/09 05:27:06;;;;;;;15.25;6.38;;;2.80;99.90;;;;;;4991501;28;20026;-58
2021/04/09 05:29:33;;;;;;;24.05;11.10;;;2.90;99.90;;;;;;4990569;28;20050;-60
2021/04/09 05:31:59;;;;;;;19.70;9.10;;;2.90;99.90;;;;;;4990767;28;20030;-60
2021/04/09 05:34:24;;;;;;;25.23;10.27;;;3.00;99.90;;;;;;5001226;28;20424;-59
2021/04/09 05:36:50;;;;;;;17.38;8.57;;;3.00;99.90;;;;;;4981605;28;20046;-58
2021/04/09 05:39:16;;;;;;;21.80;8.52;;;3.10;99.90;;;;;;5000661;28;20030;-60
2021/04/09 05:41:41;;;;;;;20.90;9.23;;;3.20;99.90;;;;;;4998269;28;20048;-59
2021/04/09 05:44:07;;;;;;;14.50;7.70;;;3.30;99.90;;;;;;4998144;28;20030;-59
2021/04/09 05:46:33;;;;;;;15.27;7.13;;;3.30;99.90;;;;;;4996205;28;20033;-60
2021/04/09 05:48:58;;;;;;;16.52;7.75;;;3.40;99.90;;;;;;4994942;28;20100;-59
2021/04/09 05:51:24;;;;;;;15.57;7.07;;;3.40;99.90;;;;;;5003047;28;20041;-59
2021/04/09 05:53:50;;;;;;;12.13;6.57;;;3.50;99.90;;;;;;4993653;28;20030;-59
2021/04/09 05:56:15;;;;;;;16.20;6.90;;;3.60;99.90;;;;;;5004860;28;20038;-60
2021/04/09 05:58:41;;;;;;;14.55;7.22;;;3.70;99.90;;;;;;4993539;28;20055;-60
2021/04/09 06:01:06;;;;;;;11.20;5.68;;;3.80;99.90;;;;;;5009796;28;20048;-55
2021/04/09 06:03:32;;;;;;;14.07;6.40;;;3.90;99.90;;;;;;5003140;28;20088;-57
2021/04/09 06:05:57;;;;;;;14.20;6.35;;;4.00;99.90;;;;;;5003019;28;20034;-59
2021/04/09 06:08:23;;;;;;;13.85;6.22;;;4.20;99.90;;;;;;5007878;28;20026;-60
2021/04/09 06:10:49;;;;;;;14.52;6.43;;;4.30;99.90;;;;;;5001197;28;20019;-58
2021/04/09 06:13:15;;;;;;;12.93;5.68;;;4.40;99.90;;;;;;5004859;28;20040;-58
2021/04/09 06:15:41;;;;;;;9.75;5.53;;;4.60;99.90;;;;;;5000278;28;20037;-57
2021/04/09 06:18:08;;;;;;;13.75;5.88;;;4.80;99.90;;;;;;5001140;28;20034;-59
2021/04/09 06:20:34;;;;;;;12.23;5.65;;;5.00;99.90;;;;;;4994033;28;20034;-59
2021/04/09 06:22:59;;;;;;;8.52;5.43;;;5.20;99.90;;;;;;5002868;28;20011;-58
2021/04/09 06:25:25;;;;;;;14.63;6.10;;;5.30;99.90;;;;;;5004074;28;20395;-57
2021/04/09 06:27:51;;;;;;;18.02;5.68;;;5.60;99.90;;;;;;5002386;28;20026;-59
2021/04/09 06:30:17;;;;;;;14.65;5.53;;;5.80;99.90;;;;;;4996980;28;20033;-59
2021/04/09 06:32:43;;;;;;;9.40;5.95;;;6.00;99.90;;;;;;4992539;28;20040;-60
2021/04/09 06:35:09;;;;;;;16.45;6.45;;;6.10;99.90;;;;;;4992124;28;20079;-59
2021/04/09 06:37:34;;;;;;;20.05;9.13;;;6.20;99.90;;;;;;4986757;28;20053;-59
2021/04/09 06:40:00;;;;;;;11.60;6.82;;;6.10;99.90;;;;;;4999572;28;20034;-59
2021/04/09 06:42:25;;;;;;;15.13;6.75;;;6.10;99.90;;;;;;4996554;28;20054;-59
2021/04/09 06:44:51;;;;;;;12.52;6.70;;;6.10;99.90;;;;;;5003624;28;20434;-59
2021/04/09 06:47:18;;;;;;;13.15;7.63;;;6.20;99.90;;;;;;4997765;28;20089;-59
2021/04/09 06:49:44;;;;;;;11.93;7.15;;;6.20;99.90;;;;;;4990859;28;20039;-60
2021/04/09 06:52:11;;;;;;;19.45;7.68;;;6.20;99.90;;;;;;4992743;28;20040;-58
2021/04/09 06:54:37;;;;;;;15.20;6.80;;;6.20;99.90;;;;;;4996833;28;20038;-59
2021/04/09 06:57:04;;;;;;;9.23;5.78;;;6.40;99.90;;;;;;4998071;28;20022;-60
2021/04/09 06:59:30;;;;;;;15.88;5.82;;;6.50;99.90;;;;;;4995291;28;20069;-59
2021/04/09 07:01:58;;;;;;;11.55;5.82;;;6.60;99.90;;;;;;4995999;28;20030;-59
2021/04/09 07:04:23;;;;;;;16.23;5.85;;;6.60;99.90;;;;;;4992928;28;20046;-59
2021/04/09 07:06:50;;;;;;;10.35;5.32;;;6.60;99.90;;;;;;4992794;28;20056;-59
2021/04/09 07:09:16;;;;;;;8.93;4.75;;;6.60;99.90;;;;;;4990004;28;20029;-59
2021/04/09 07:11:49;;;;;;;9.65;5.20;;;6.80;99.90;;;;;;4990372;28;20026;-60
2021/04/09 07:14:15;;;;;;;13.35;5.55;;;6.90;99.90;;;;;;4987545;28;20030;-58
2021/04/09 07:16:57;;;;;;;12.85;7.15;;;7.00;99.60;;;;;;4990208;28;20392;-60
2021/04/09 07:19:36;;;;;;;19.20;9.73;;;7.30;99.60;;;;;;4990195;28;20026;-59
2021/04/09 07:22:04;;;;;;;20.10;10.57;;;7.70;98.60;;;;;;5000459;28;20569;-59
2021/04/09 07:24:30;;;;;;;9.65;5.47;;;7.90;98.40;;;;;;5000337;28;20025;-59
2021/04/09 07:26:57;;;;;;;14.18;6.07;;;8.10;97.00;;;;;;5008107;28;20059;-59
2021/04/09 07:29:32;;;;;;;9.35;5.28;;;8.60;97.00;;;;;;4994128;28;20026;-60
2021/04/09 07:32:07;;;;;;;11.77;5.78;;;9.00;96.40;;;;;;4990109;28;20030;-60
2021/04/09 07:34:53;;;;;;;12.93;6.22;;;9.30;95.20;;;;;;4991385;28;20042;-60
2021/04/09 07:37:19;;;;;;;12.68;4.97;;;9.70;94.00;;;;;;4973238;28;20077;-59
2021/04/09 07:39:45;;;;;;;9.27;5.65;;;10.40;92.90;;;;;;4991127;28;20042;-60
2021/04/09 07:42:12;;;;;;;11.95;5.60;;;10.90;90.20;;;;;;4992185;28;20033;-60
2021/04/09 07:44:39;;;;;;;11.10;5.25;;;11.10;90.90;;;;;;4991808;28;20041;-60
2021/04/09 07:47:13;;;;;;;12.98;5.35;;;11.40;90.50;;;;;;4994662;28;20054;-60
2021/04/09 07:49:39;;;;;;;11.80;6.22;;;11.60;87.80;;;;;;4998445;28;20052;-60
2021/04/09 07:52:12;;;;;;;8.82;5.40;;;11.90;86.20;;;;;;5000573;28;20062;-59
2021/04/09 07:54:38;;;;;;;11.20;5.72;;;12.40;87.80;;;;;;4995784;28;20110;-57
2021/04/09 07:57:04;;;;;;;10.93;6.13;;;13.30;80.90;;;;;;4998008;28;20418;-59
2021/04/09 07:59:41;;;;;;;14.82;6.38;;;13.40;81.70;;;;;;4991806;28;20423;-61
2021/04/09 08:02:10;;;;;;;9.68;5.40;;;12.90;81.50;;;;;;5005303;28;20088;-61
2021/04/09 08:04:40;;;;;;;9.60;5.93;;;13.10;81.80;;;;;;4990361;28;20014;-59
2021/04/09 08:07:06;;;;;;;10.73;6.50;;;13.10;80.60;;;;;;5000801;28;20448;-59
2021/04/09 08:09:50;;;;;;;12.90;6.05;;;12.60;81.40;;;;;;4997666;28;20798;-58
2021/04/09 08:12:29;;;;;;;10.60;6.15;;;12.20;81.10;;;;;;4998996;28;20044;-57
2021/04/09 08:15:10;;;;;;;11.23;6.32;;;12.00;84.00;;;;;;4993716;28;20395;-59
2021/04/09 08:17:36;;;;;;;17.90;12.00;;;11.60;84.90;;;;;;4999460;28;20031;-59
2021/04/09 08:20:12;;;;;;;10.23;5.82;;;11.40;84.50;;;;;;4993472;28;20086;-60
2021/04/09 08:22:38;;;;;;;14.00;5.72;;;11.50;88.20;;;;;;5002947;28;20061;-60
2021/04/09 08:25:09;;;;;;;9.18;5.55;;;11.40;85.10;;;;;;5002091;28;20051;-60
2021/04/09 08:27:35;;;;;;;9.68;5.63;;;11.80;86.70;;;;;;4998539;28;20105;-60
2021/04/09 08:30:02;;;;;;;13.35;7.35;;;11.90;87.90;;;;;;4994749;28;20026;-60
2021/04/09 08:32:28;;;;;;;17.05;6.60;;;11.80;85.00;;;;;;4999514;28;20049;-60
2021/04/09 08:34:54;;;;;;;13.43;6.00;;;11.50;84.50;;;;;;5002444;28;20058;-59
2021/04/09 08:37:20;;;;;;;11.57;6.43;;;11.80;88.10;;;;;;4979906;28;20045;-59
2021/04/09 08:39:46;;;;;;;10.93;5.70;;;12.10;87.60;;;;;;5001078;28;20030;-58
2021/04/09 08:42:15;;;;;;;11.77;5.30;;;12.10;86.70;;;;;;4996894;28;20033;-59
2021/04/09 08:44:40;;;;;;;10.52;6.75;;;12.60;88.40;;;;;;5002406;28;20146;-60
2021/04/09 08:47:07;;;;;;;10.20;6.38;;;12.90;83.60;;;;;;5001722;28;20380;-60
2021/04/09 08:49:33;;;;;;;8.20;5.70;;;13.80;84.30;;;;;;4994942;28;20093;-60
2021/04/09 08:52:05;;;;;;;9.35;5.75;;;15.00;79.50;;;;;;5000379;28;20030;-61
2021/04/09 08:54:31;;;;;;;14.35;5.65;;;15.80;74.00;;;;;;4996022;28;20081;-61
2021/04/09 08:56:59;;;;;;;11.43;6.30;;;16.20;72.10;;;;;;5000234;28;20028;-60
2021/04/09 08:59:47;;;;;;;15.15;6.57;;;15.50;70.40;;;;;;4998487;28;20384;-61
2021/04/09 09:02:27;;;;;;;11.50;5.32;;;15.50;71.20;;;;;;4999221;28;20018;-61
2021/04/09 09:05:07;;;;;;;8.40;6.13;;;15.70;66.90;;;;;;4966037;28;20061;-61
2021/04/09 09:07:54;;;;;;;11.48;6.95;;;15.40;66.70;;;;;;5013385;28;20076;-61
2021/04/09 09:10:22;;;;;;;11.20;6.00;;;15.80;66.70;;;;;;4997545;28;20403;-59
2021/04/09 09:13:06;;;;;;;12.55;8.20;;;15.10;66.20;;;;;;5005181;28;20034;-60
2021/04/09 09:15:41;;;;;;;;;;;14.30;67.30;;;;;;4964229;28;20031;-58
2021/04/09 09:18:30;;;;;;;17.00;8.18;;;14.10;68.60;;;;;;5004177;28;19914;-60
2021/04/09 09:21:09;;;;;;;13.75;7.22;;;14.10;68.00;;;;;;5001003;28;20032;-60
2021/04/09 09:24:03;;;;;;;8.73;5.40;;;13.80;69.80;;;;;;4995595;28;20057;-60
2021/04/09 09:26:33;;;;;;;15.02;7.13;;;13.70;68.50;;;;;;4998378;28;20099;-60
2021/04/09 09:29:07;;;;;;;11.88;6.35;;;13.60;69.70;;;;;;4999382;28;20507;-58
2021/04/09 09:31:36;;;;;;;7.70;5.05;;;13.70;69.30;;;;;;4997661;28;20026;-59
2021/04/09 09:34:17;;;;;;;9.63;5.65;;;13.30;71.30;;;;;;5005372;28;20028;-61
2021/04/09 09:37:19;;;;;;;9.13;5.55;;;13.90;69.50;;;;;;4990058;28;20038;-60
2021/04/09 09:39:52;;;;;;;13.68;5.95;;;13.70;71.30;;;;;;4993808;28;20066;-58
2021/04/09 09:42:25;;;;;;;10.70;5.80;;;13.80;72.70;;;;;;4992991;28;20161;-59
2021/04/09 09:45:00;;;;;;;20.67;14.90;;;13.90;71.70;;;;;;4998255;28;20105;-60
2021/04/09 09:47:33;;;;;;;15.60;8.02;;;14.60;71.30;;;;;;4993655;28;20054;-58
2021/04/09 09:50:04;;;;;;;14.25;8.10;;;14.70;70.10;;;;;;4989091;28;20496;-59
2021/04/09 09:53:02;;;;;;;12.10;7.80;;;14.80;67.70;;;;;;4989329;28;20153;-59
2021/04/09 09:55:45;;;;;;;11.13;6.85;;;14.60;69.00;;;;;;4972092;28;20058;-60
2021/04/09 09:58:22;;;;;;;10.02;5.47;;;14.40;68.40;;;;;;4988970;28;20377;-59
2021/04/09 10:01:01;;;;;;;6.88;4.30;;;14.20;70.70;;;;;;4989519;28;20026;-59
2021/04/09 10:03:35;;;;;;;6.53;4.45;;;14.30;68.80;;;;;;4988702;28;20088;-59
2021/04/09 10:06:04;;;;;;;7.43;4.57;;;13.60;68.90;;;;;;4981707;28;20046;-60
2021/04/09 10:08:33;;;;;;;11.00;4.93;;;13.80;69.90;;;;;;4988038;28;20034;-60
2021/04/09 10:11:02;;;;;;;9.57;4.90;;;14.00;69.80;;;;;;4989944;28;20026;-60
2021/04/09 10:13:32;;;;;;;9.38;5.07;;;13.40;68.50;;;;;;4987606;28;20049;-58
2021/04/09 10:16:10;;;;;;;9.43;4.95;;;13.40;70.40;;;;;;4987981;28;20034;-59
2021/04/09 10:18:37;;;;;;;8.55;5.32;;;13.90;70.40;;;;;;4998530;28;20031;-59
2021/04/09 10:21:16;;;;;;;10.30;4.88;;;14.30;69.40;;;;;;4999327;28;20035;-60
2021/04/09 10:23:43;;;;;;;6.32;3.83;;;14.50;69.80;;;;;;5000549;28;20112;-59
2021/04/09 10:26:09;;;;;;;6.40;4.57;;;14.40;68.50;;;;;;4997368;28;20025;-59
2021/04/09 10:28:36;;;;;;;7.47;4.63;;;14.10;68.80;;;;;;4995012;28;20027;-59
2021/04/09 10:31:15;;;;;;;12.98;6.15;;;13.70;67.80;;;;;;4987581;28;20030;-60
2021/04/09 10:33:43;;;;;;;14.98;7.88;;;13.30;70.70;;;;;;4988894;28;20030;-59
2021/04/09 10:36:29;;;;;;;12.20;6.82;;;13.40;70.50;;;;;;4990003;28;20084;-59
2021/04/09 10:39:00;;;;;;;9.60;4.50;;;13.50;70.40;;;;;;4981040;28;20056;-60
2021/04/09 10:41:32;;;;;;;8.50;5.05;;;13.20;70.60;;;;;;4990369;28;20088;-59
2021/04/09 10:44:12;;;;;;;8.75;4.38;;;13.60;72.20;;;;;;4993006;28;20022;-60
2021/04/09 10:46:40;;;;;;;25.30;12.98;;;14.00;71.50;;;;;;4993123;28;20026;-60
2021/04/09 10:49:19;;;;;;;15.20;7.28;;;13.90;70.70;;;;;;4990845;28;20026;-58
2021/04/09 10:51:50;;;;;;;22.25;9.50;;;14.00;70.00;;;;;;4990978;28;20040;-60
2021/04/09 10:54:20;;;;;;;10.63;6.10;;;13.70;69.90;;;;;;4991206;28;20117;-59
2021/04/09 10:56:55;;;;;;;13.95;4.05;;;13.90;69.80;;;;;;4987947;28;20113;-59
2021/04/09 10:59:24;;;;;;;9.25;4.78;;;14.30;72.00;;;;;;4991495;28;20030;-59
2021/04/09 11:01:50;;;;;;;9.13;5.00;;;14.10;68.40;;;;;;4992427;28;20056;-59
2021/04/09 11:04:16;;;;;;;12.52;6.47;;;13.90;70.40;;;;;;4992852;28;20026;-60
2021/04/09 11:07:03;;;;;;;16.80;9.27;;;14.00;68.40;;;;;;4993914;28;20022;-59
2021/04/09 11:09:41;;;;;;;9.35;5.55;;;14.20;69.40;;;;;;4996162;28;20047;-58
2021/04/09 11:12:28;;;;;;;11.68;4.97;;;14.60;69.40;;;;;;4985793;28;20100;-60
2021/04/09 11:15:12;;;;;;;10.55;5.85;;;15.10;68.90;;;;;;4990183;28;20018;-60
2021/04/09 11:17:39;;;;;;;11.70;6.05;;;15.50;69.00;;;;;;4987210;28;20030;-60
2021/04/09 11:20:27;;;;;;;11.75;5.13;;;15.00;67.00;;;;;;4988484;28;20513;-57
2021/04/09 11:23:08;;;;;;;11.98;4.43;;;14.80;67.30;;;;;;4990630;28;20023;-60
2021/04/09 11:25:39;;;;;;;9.50;4.95;;;14.90;67.30;;;;;;4990290;28;20026;-60
2021/04/09 11:28:06;;;;;;;13.48;5.85;;;15.30;67.90;;;;;;4989082;28;20022;-60
2021/04/09 11:30:34;;;;;;;17.85;5.82;;;15.40;66.80;;;;;;4990678;28;20635;-58
2021/04/09 11:33:00;;;;;;;9.38;5.20;;;15.50;67.60;;;;;;4990986;28;20100;-59
2021/04/09 11:35:34;;;;;;;9.68;5.00;;;15.30;65.60;;;;;;4991520;28;20066;-60
2021/04/09 11:37:59;;;;;;;11.23;5.35;;;15.30;66.40;;;;;;4973065;28;20254;-60
2021/04/09 11:40:43;;;;;;;7.75;4.65;;;15.30;66.80;;;;;;4991361;28;20148;-61
2021/04/09 11:43:13;;;;;;;9.07;5.35;;;15.10;66.30;;;;;;4993786;28;20041;-60
2021/04/09 11:45:49;;;;;;;8.32;5.78;;;15.10;65.40;;;;;;4999176;28;20037;-60
2021/04/09 11:48:33;;;;;;;7.25;4.50;;;14.90;65.80;;;;;;4988636;28;21034;-60
2021/04/09 11:51:18;;;;;;;9.52;4.45;;;14.90;66.70;;;;;;4993774;28;20109;-59
2021/04/09 11:54:21;;;;;;;11.32;4.38;;;15.10;66.60;;;;;;4991227;28;20026;-60
2021/04/09 11:56:48;;;;;;;8.95;5.00;;;15.20;68.40;;;;;;4998818;28;20030;-59
2021/04/09 11:59:16;;;;;;;8.27;4.35;;;15.30;68.90;;;;;;4996799;28;20097;-60
2021/04/09 12:01:43;;;;;;;14.00;4.75;;;15.20;67.60;;;;;;5001793;28;20022;-60
2021/04/09 12:04:36;;;;;;;8.35;4.72;;;15.20;65.10;;;;;;4998921;28;20093;-60
2021/04/09 12:07:03;;;;;;;6.67;4.97;;;14.70;66.40;;;;;;4997103;28;20028;-60
2021/04/09 12:09:29;;;;;;;12.05;5.25;;;14.80;64.90;;;;;;4994879;28;20293;-60
2021/04/09 12:11:55;;;;;;;8.38;4.85;;;15.10;65.90;;;;;;5000057;28;20066;-58
2021/04/09 12:14:34;;;;;;;9.43;4.45;;;15.20;64.90;;;;;;4993678;28;20046;-60
2021/04/09 12:17:01;;;;;;;6.50;4.15;;;15.40;67.80;;;;;;4988973;28;20558;-60
2021/04/09 12:19:27;;;;;;;7.00;4.68;;;15.00;67.50;;;;;;4986042;28;20022;-58
2021/04/09 12:21:52;;;;;;;7.30;4.13;;;14.90;67.00;;;;;;4992633;28;20077;-59
2021/04/09 12:24:18;;;;;;;11.70;4.57;;;15.00;66.60;;;;;;4990026;28;20056;-58
2021/04/09 12:26:44;;;;;;;6.38;4.03;;;14.90;64.60;;;;;;4990773;28;20042;-57
2021/04/09 12:29:10;;;;;;;8.50;4.55;;;15.10;65.80;;;;;;4993307;28;20034;-60
2021/04/09 12:31:37;;;;;;;8.48;4.82;;;15.20;68.10;;;;;;4999481;28;20102;-60
2021/04/09 12:34:02;;;;;;;5.75;4.13;;;15.10;66.90;;;;;;5001040;28;20041;-59
2021/04/09 12:36:28;;;;;;;9.38;4.93;;;15.20;66.30;;;;;;4994023;28;20620;-60
2021/04/09 12:38:53;;;;;;;13.73;5.22;;;15.40;66.20;;;;;;4985775;28;20136;-59
2021/04/09 12:41:19;;;;;;;7.65;4.35;;;15.40;67.80;;;;;;5002585;28;20030;-58
2021/04/09 12:43:44;;;;;;;7.13;4.65;;;15.30;64.50;;;;;;4999799;28;20433;-60
2021/04/09 12:46:10;;;;;;;6.80;3.75;;;15.30;64.50;;;;;;4999747;28;20756;-60
2021/04/09 12:48:35;;;;;;;7.53;4.28;;;15.10;65.70;;;;;;4993606;28;20376;-60
2021/04/09 12:51:01;;;;;;;10.10;5.20;;;15.10;65.80;;;;;;4999049;28;20678;-60
2021/04/09 12:53:26;;;;;;;17.90;6.07;;;14.80;65.60;;;;;;5000126;28;20494;-60
2021/04/09 12:55:52;;;;;;;8.98;4.32;;;14.70;65.10;;;;;;5005819;28;20037;-60